createdAt,value
2023-03-02T00:02:51.920Z,13.70
2023-03-02T00:06:03.930Z,16.45
2023-03-02T00:09:19.088Z,14.33
2023-03-02T00:12:43.936Z,15.15
2023-03-02T00:15:44.032Z,15.50
2023-03-02T00:19:09.970Z,16.10
2023-03-02T00:22:21.924Z,16.60
2023-03-02T00:25:34.957Z,14.53
2023-03-02T00:28:37.983Z,15.23
2023-03-02T00:32:04.997Z,15.57
2023-03-02T00:35:31.025Z,17.05
2023-03-02T00:38:43.003Z,16.80
2023-03-02T00:41:54.994Z,16.73
2023-03-02T00:45:08.000Z,15.95
2023-03-02T00:48:08.051Z,15.75
2023-03-02T00:51:35.086Z,14.95
2023-03-02T00:54:34.995Z,15.00
2023-03-02T00:57:48.090Z,16.05
2023-03-02T01:01:00.110Z,15.77
2023-03-02T01:04:12.061Z,16.70
2023-03-02T01:07:26.099Z,17.37
2023-03-02T01:10:38.099Z,16.30
2023-03-02T01:13:38.085Z,16.73
2023-03-02T01:16:50.170Z,16.17
2023-03-02T01:20:08.115Z,16.10
2023-03-02T01:23:34.099Z,15.40
2023-03-02T01:26:37.086Z,16.10
2023-03-02T01:29:49.218Z,16.70
2023-03-02T01:33:01.180Z,15.45
2023-03-02T01:36:25.178Z,15.65
2023-03-02T01:39:51.210Z,13.87
2023-03-02T01:43:16.177Z,16.30
2023-03-02T01:46:43.201Z,14.50
2023-03-02T01:50:08.214Z,15.85
2023-03-02T01:53:32.264Z,13.77
2023-03-02T01:56:59.267Z,15.37
2023-03-02T02:00:11.266Z,13.40
2023-03-02T02:03:36.335Z,14.90
2023-03-02T02:06:48.304Z,14.40
2023-03-02T02:10:12.361Z,16.17
2023-03-02T02:13:38.289Z,16.00
2023-03-02T02:17:02.338Z,14.20
2023-03-02T02:20:21.330Z,15.60
2023-03-02T02:23:51.346Z,13.93
2023-03-02T02:27:20.371Z,14.05
2023-03-02T02:30:44.400Z,13.20
2023-03-02T02:34:08.331Z,14.20
2023-03-02T02:37:32.397Z,13.33
2023-03-02T02:41:06.441Z,13.35
2023-03-02T02:44:32.366Z,12.57
2023-03-02T02:47:56.445Z,13.05
2023-03-02T02:51:21.378Z,12.37
2023-03-02T02:54:36.444Z,12.33
2023-03-02T02:57:48.477Z,12.50
2023-03-02T03:01:14.475Z,12.75
2023-03-02T03:04:38.493Z,13.43
2023-03-02T03:07:38.483Z,14.10
2023-03-02T03:11:02.442Z,12.80
2023-03-02T03:14:30.529Z,12.90
2023-03-02T03:17:57.454Z,14.25
2023-03-02T03:21:09.488Z,13.17
2023-03-02T03:24:22.617Z,14.07
2023-03-02T03:27:34.623Z,12.20
2023-03-02T03:30:47.581Z,13.95
2023-03-02T03:34:13.536Z,13.50
2023-03-02T03:37:37.572Z,12.70
2023-03-02T03:40:49.550Z,12.55
2023-03-02T03:44:01.528Z,12.55
2023-03-02T03:47:25.534Z,14.10
2023-03-02T03:50:52.585Z,14.90
2023-03-02T03:54:12.559Z,13.40
2023-03-02T03:57:24.662Z,13.07
2023-03-02T04:00:48.522Z,13.85
2023-03-02T04:04:00.600Z,13.45
2023-03-02T04:07:13.669Z,13.90
2023-03-02T04:10:37.623Z,13.50
2023-03-02T04:13:37.614Z,15.10
2023-03-02T04:17:01.611Z,14.00
2023-03-02T04:20:13.706Z,15.43
2023-03-02T04:23:40.668Z,14.00
2023-03-02T04:27:04.718Z,13.80
2023-03-02T04:30:29.734Z,13.23
2023-03-02T04:33:53.759Z,14.30
2023-03-02T04:37:17.808Z,14.67
2023-03-02T04:40:42.754Z,14.60
2023-03-02T04:44:06.738Z,14.50
2023-03-02T04:47:06.732Z,14.53
2023-03-02T04:50:31.876Z,14.70
2023-03-02T04:53:32.008Z,14.63
2023-03-02T04:56:57.823Z,14.43
2023-03-02T04:59:57.914Z,16.35
2023-03-02T05:03:09.792Z,14.65
2023-03-02T05:06:09.872Z,16.57
2023-03-02T05:09:33.768Z,13.45
2023-03-02T05:12:46.874Z,14.23
2023-03-02T05:15:58.903Z,16.83
2023-03-02T05:19:10.867Z,14.83
2023-03-02T05:22:34.885Z,14.60
2023-03-02T05:25:46.857Z,16.63
2023-03-02T05:29:15.866Z,15.75
2023-03-02T05:32:15.953Z,14.95
2023-03-02T05:35:28.975Z,15.07
2023-03-02T05:38:40.965Z,15.05
2023-03-02T05:42:04.891Z,15.73
2023-03-02T05:45:18.967Z,17.90
2023-03-02T05:48:33.938Z,14.15
2023-03-02T05:51:33.937Z,14.57
2023-03-02T05:54:48.985Z,13.63
2023-03-02T05:57:49.018Z,14.67
2023-03-02T06:01:15.662Z,14.90
2023-03-02T06:04:27.050Z,14.75
2023-03-02T06:07:27.020Z,13.77
2023-03-02T06:10:51.072Z,14.77
2023-03-02T06:14:03.013Z,15.00
2023-03-02T06:17:29.043Z,13.90
2023-03-02T06:20:41.052Z,13.40
2023-03-02T06:23:54.103Z,12.90
2023-03-02T06:26:54.144Z,13.65
2023-03-02T06:30:07.087Z,14.50
2023-03-02T06:33:21.130Z,13.80
2023-03-02T06:36:33.543Z,15.40
2023-03-02T06:39:33.142Z,14.23
2023-03-02T06:42:45.105Z,15.80
2023-03-02T06:45:57.226Z,14.90
2023-03-02T06:49:22.201Z,14.10
2023-03-02T06:52:37.125Z,13.80
2023-03-02T06:55:53.154Z,14.33
2023-03-02T06:58:53.173Z,12.30
2023-03-02T07:02:05.180Z,12.47
2023-03-02T07:05:19.231Z,13.05
2023-03-02T07:08:43.212Z,14.03
2023-03-02T07:12:07.216Z,13.05
2023-03-02T07:15:32.197Z,13.80
2023-03-02T07:18:32.260Z,13.70
2023-03-02T07:22:01.281Z,16.50
2023-03-02T07:25:01.393Z,13.55
2023-03-02T07:28:13.212Z,14.77
2023-03-02T07:31:13.316Z,14.00
2023-03-02T07:34:25.243Z,13.70
2023-03-02T07:37:38.309Z,13.13
2023-03-02T07:41:05.333Z,13.07
2023-03-02T07:44:05.325Z,12.60
2023-03-02T07:47:29.350Z,12.57
2023-03-02T07:50:41.347Z,13.03
2023-03-02T07:54:07.437Z,12.40
2023-03-02T07:57:07.377Z,11.63
2023-03-02T08:00:32.357Z,14.60
2023-03-02T08:03:44.389Z,13.83
2023-03-02T08:06:44.427Z,12.77
2023-03-02T08:10:09.403Z,11.70
2023-03-02T08:13:09.402Z,13.23
2023-03-02T08:16:29.584Z,12.75
2023-03-02T08:19:29.478Z,12.90
2023-03-02T08:22:41.627Z,13.23
2023-03-02T08:25:58.487Z,13.20
2023-03-02T08:29:23.403Z,11.60
2023-03-02T08:32:35.612Z,11.25
2023-03-02T08:36:00.565Z,11.57
2023-03-02T08:39:12.495Z,11.60
2023-03-02T08:42:38.512Z,12.15
2023-03-02T08:45:50.583Z,11.73
2023-03-02T08:49:05.478Z,12.60
2023-03-02T08:52:06.565Z,11.70
2023-03-02T08:55:19.553Z,12.50
2023-03-02T08:58:32.547Z,11.30
2023-03-02T09:01:56.536Z,12.45
2023-03-02T09:04:59.646Z,11.60
2023-03-02T09:08:11.595Z,10.45
2023-03-02T09:11:11.538Z,11.33
2023-03-02T09:14:37.602Z,11.65
2023-03-02T09:17:37.619Z,11.27
2023-03-02T09:20:50.621Z,11.63
2023-03-02T09:23:50.688Z,11.80
2023-03-02T09:27:17.723Z,11.33
2023-03-02T09:30:31.696Z,11.40
2023-03-02T09:33:58.624Z,11.07
2023-03-02T09:36:58.652Z,10.77
2023-03-02T09:40:10.719Z,10.60
2023-03-02T09:43:25.727Z,9.57
2023-03-02T09:46:44.686Z,11.45
2023-03-02T09:49:59.739Z,10.35
2023-03-02T09:53:27.654Z,10.40
2023-03-02T09:56:42.709Z,11.00
2023-03-02T10:00:18.740Z,10.63
2023-03-02T10:03:34.805Z,9.80
2023-03-02T10:06:48.766Z,11.00
2023-03-02T10:10:12.771Z,9.65
2023-03-02T10:13:26.758Z,11.30
2023-03-02T10:16:53.887Z,10.87
2023-03-02T10:20:05.806Z,10.10
2023-03-02T10:23:33.779Z,10.07
2023-03-02T10:26:50.840Z,9.95
2023-03-02T10:30:14.796Z,10.13
2023-03-02T10:33:26.831Z,10.23
2023-03-02T10:36:51.876Z,11.10
2023-03-02T10:40:05.846Z,10.60
2023-03-02T10:43:29.857Z,9.90
2023-03-02T10:46:33.263Z,9.85
2023-03-02T10:49:57.890Z,10.40
2023-03-02T10:53:13.930Z,9.73
2023-03-02T10:56:44.845Z,10.17
2023-03-02T10:59:58.951Z,10.10
2023-03-02T11:03:22.938Z,8.75
2023-03-02T11:06:35.902Z,9.15
2023-03-02T11:09:47.905Z,10.83
2023-03-02T11:13:02.017Z,10.50
2023-03-02T11:16:26.027Z,11.73
2023-03-02T11:19:40.928Z,10.80
2023-03-02T11:23:05.986Z,10.37
2023-03-02T11:26:17.958Z,10.33
2023-03-02T11:29:45.055Z,10.77
2023-03-02T11:32:58.023Z,10.73
2023-03-02T11:36:24.993Z,10.75
2023-03-02T11:39:46.563Z,9.80
2023-03-02T11:43:05.014Z,10.73
2023-03-02T11:46:22.215Z,10.40
2023-03-02T11:49:43.039Z,10.53
2023-03-02T11:52:58.058Z,11.50
2023-03-02T11:56:22.061Z,10.23
2023-03-02T11:59:35.099Z,10.70
2023-03-02T12:03:01.114Z,10.55
2023-03-02T12:06:25.187Z,10.45
2023-03-02T12:09:50.121Z,11.43
2023-03-02T12:13:20.131Z,10.67
2023-03-02T12:16:43.267Z,10.60
2023-03-02T12:20:09.144Z,11.37
2023-03-02T12:23:33.183Z,10.80
2023-03-02T12:27:00.259Z,11.37
2023-03-02T12:30:12.236Z,10.53
2023-03-02T12:33:41.159Z,10.03
2023-03-02T12:36:58.204Z,10.30
2023-03-02T12:40:17.228Z,10.43
2023-03-02T12:43:42.533Z,10.67
2023-03-02T12:47:09.421Z,11.13
2023-03-02T12:50:22.296Z,10.33
2023-03-02T12:53:47.289Z,9.50
2023-03-02T12:56:47.277Z,10.17
2023-03-02T13:00:16.248Z,10.40
2023-03-02T13:03:16.310Z,11.60
2023-03-02T13:06:41.326Z,11.95
2023-03-02T13:09:57.400Z,10.60
2023-03-02T13:13:22.454Z,11.70
2023-03-02T13:16:46.371Z,11.33
2023-03-02T13:19:58.378Z,11.00
2023-03-02T13:23:01.344Z,10.73
2023-03-02T13:26:28.365Z,11.07
2023-03-02T13:29:43.520Z,11.50
2023-03-02T13:33:14.407Z,10.80
2023-03-02T13:36:29.353Z,11.03
2023-03-02T13:39:53.373Z,9.70
2023-03-02T13:43:07.416Z,11.20
2023-03-02T13:46:31.787Z,11.77
2023-03-02T13:49:52.436Z,10.77
2023-03-02T13:53:16.490Z,10.07
2023-03-02T13:56:28.418Z,10.80
2023-03-02T13:59:54.478Z,10.90
2023-03-02T14:03:07.513Z,10.30
2023-03-02T14:06:19.526Z,11.07
2023-03-02T14:09:46.468Z,10.60
2023-03-02T14:12:46.497Z,10.70
2023-03-02T14:16:12.661Z,10.73
2023-03-02T14:19:12.571Z,10.40
2023-03-02T14:22:31.560Z,10.70
2023-03-02T14:25:31.730Z,10.93
2023-03-02T14:29:04.828Z,10.25
2023-03-02T14:32:08.664Z,10.03
2023-03-02T14:35:33.615Z,10.37
2023-03-02T14:38:45.678Z,10.03
2023-03-02T14:41:57.794Z,10.20
2023-03-02T14:45:09.609Z,9.80
2023-03-02T14:48:37.650Z,11.15
2023-03-02T14:51:49.594Z,10.05
2023-03-02T14:55:14.605Z,10.77
2023-03-02T14:58:27.608Z,10.43
2023-03-02T15:01:39.696Z,10.80
2023-03-02T15:04:55.642Z,11.40
2023-03-02T15:08:05.639Z,10.53
2023-03-02T15:11:17.784Z,9.13
2023-03-02T15:14:29.698Z,10.37
2023-03-02T15:17:29.703Z,10.10
2023-03-02T15:20:55.735Z,9.60
2023-03-02T15:23:56.843Z,9.73
2023-03-02T15:27:12.796Z,11.05
2023-03-02T15:30:24.750Z,10.20
2023-03-02T15:33:36.764Z,10.43
2023-03-02T15:36:50.719Z,10.10
2023-03-02T15:40:17.798Z,9.70
2023-03-02T15:43:17.788Z,9.67
2023-03-02T15:46:29.808Z,9.20
2023-03-02T15:49:32.948Z,8.93
2023-03-02T15:52:57.833Z,8.85
2023-03-02T15:55:57.813Z,9.43
2023-03-02T15:59:09.831Z,9.03
2023-03-02T16:02:21.895Z,9.10
2023-03-02T16:05:36.903Z,9.03
2023-03-02T16:08:52.804Z,9.17
2023-03-02T16:12:08.859Z,8.77
2023-03-02T16:15:08.934Z,9.55
2023-03-02T16:18:32.880Z,8.43
2023-03-02T16:21:44.913Z,8.70
2023-03-02T16:25:10.934Z,7.90
2023-03-02T16:28:10.966Z,8.30
2023-03-02T16:31:36.990Z,7.97
2023-03-02T16:34:36.941Z,8.10
2023-03-02T16:37:51.973Z,7.07
2023-03-02T16:41:05.991Z,6.63
2023-03-02T16:44:29.994Z,6.85
2023-03-02T16:47:33.021Z,7.27
2023-03-02T16:50:56.983Z,6.83
2023-03-02T16:54:08.994Z,5.90
2023-03-02T16:57:34.973Z,6.50
2023-03-02T17:00:47.081Z,6.50
2023-03-02T17:04:12.145Z,6.95
2023-03-02T17:07:12.020Z,6.90
2023-03-02T17:10:37.047Z,6.83
2023-03-02T17:13:51.156Z,6.10
2023-03-02T17:17:03.124Z,6.80
2023-03-02T17:20:03.071Z,5.93
2023-03-02T17:23:31.124Z,6.20
2023-03-02T17:26:35.088Z,6.50
2023-03-02T17:30:02.138Z,5.90
2023-03-02T17:33:14.211Z,6.00
2023-03-02T17:36:38.197Z,6.10
2023-03-02T17:39:38.156Z,6.30
2023-03-02T17:42:50.949Z,5.90
2023-03-02T17:46:04.226Z,5.80
2023-03-02T17:49:17.149Z,6.55
2023-03-02T17:52:17.195Z,6.33
2023-03-02T17:55:41.237Z,5.23
2023-03-02T17:58:44.936Z,6.73
2023-03-02T18:02:07.201Z,6.93
2023-03-02T18:05:33.452Z,6.50
2023-03-02T18:08:48.275Z,6.87
2023-03-02T18:12:00.246Z,6.20
2023-03-02T18:15:00.360Z,5.63
2023-03-02T18:18:26.312Z,6.40
2023-03-02T18:21:26.240Z,5.70
2023-03-02T18:24:39.292Z,6.25
2023-03-02T18:27:39.303Z,6.30
2023-03-02T18:31:03.451Z,5.90
2023-03-02T18:34:17.354Z,6.67
2023-03-02T18:37:29.435Z,6.10
2023-03-02T18:40:29.350Z,5.55
2023-03-02T18:43:54.363Z,6.73
2023-03-02T18:46:54.387Z,6.60
2023-03-02T18:50:20.433Z,6.50
2023-03-02T18:53:21.395Z,6.25
2023-03-02T18:56:48.459Z,6.45
2023-03-02T19:00:03.380Z,6.13
2023-03-02T19:03:15.383Z,5.97
2023-03-02T19:06:32.462Z,6.50
2023-03-02T19:09:56.464Z,5.83
2023-03-02T19:12:56.422Z,5.50
2023-03-02T19:16:08.504Z,5.60
2023-03-02T19:19:08.474Z,6.67
2023-03-02T19:22:34.417Z,5.70
2023-03-02T19:25:46.443Z,6.63
2023-03-02T19:29:11.529Z,5.80
2023-03-02T19:32:11.587Z,5.65
2023-03-02T19:35:35.519Z,5.90
2023-03-02T19:38:49.515Z,6.10
2023-03-02T19:42:14.597Z,5.37
2023-03-02T19:45:30.605Z,6.60
2023-03-02T19:48:49.577Z,6.93
2023-03-02T19:51:49.511Z,5.47
2023-03-02T19:55:15.593Z,5.80
2023-03-02T19:58:28.654Z,5.67
2023-03-02T20:01:40.587Z,5.53
2023-03-02T20:04:56.614Z,6.37
2023-03-02T20:08:08.623Z,6.47
2023-03-02T20:11:34.613Z,7.67
2023-03-02T20:14:34.562Z,7.50
2023-03-02T20:17:47.609Z,7.60
2023-03-02T20:20:47.623Z,7.63
2023-03-02T20:24:00.663Z,7.87
2023-03-02T20:27:14.695Z,7.73
2023-03-02T20:30:39.715Z,6.70
2023-03-02T20:33:51.720Z,7.00
2023-03-02T20:37:15.735Z,7.90
2023-03-02T20:40:27.732Z,7.10
2023-03-02T20:43:53.764Z,9.55
2023-03-02T20:47:05.689Z,9.20
2023-03-02T20:50:29.768Z,9.47
2023-03-02T20:53:41.785Z,8.05
2023-03-02T20:57:06.761Z,8.30
2023-03-02T21:00:20.825Z,8.80
2023-03-02T21:03:32.758Z,9.40
2023-03-02T21:06:32.775Z,9.40
2023-03-02T21:09:44.807Z,8.93
2023-03-02T21:12:56.795Z,9.53
2023-03-02T21:16:22.877Z,8.17
2023-03-02T21:19:34.782Z,8.33
2023-03-02T21:22:58.787Z,8.80
2023-03-02T21:25:58.853Z,8.95
2023-03-02T21:29:10.859Z,9.53
2023-03-02T21:32:24.856Z,8.23
2023-03-02T21:35:48.886Z,8.13
2023-03-02T21:38:48.886Z,8.13
2023-03-02T21:42:01.958Z,8.60
2023-03-02T21:45:01.912Z,8.50
2023-03-02T21:48:28.919Z,8.35
2023-03-02T21:51:40.926Z,7.90
2023-03-02T21:55:07.881Z,9.20
2023-03-02T21:58:19.936Z,7.93
2023-03-02T22:01:44.022Z,8.10
2023-03-02T22:05:12.929Z,7.80
2023-03-02T22:08:12.953Z,9.80
2023-03-02T22:11:38.007Z,10.03
2023-03-02T22:14:37.991Z,10.70
2023-03-02T22:17:53.027Z,8.83
2023-03-02T22:21:07.093Z,9.60
2023-03-02T22:24:36.014Z,10.30
2023-03-02T22:27:48.027Z,12.00
2023-03-02T22:31:12.013Z,9.40
2023-03-02T22:34:12.034Z,9.17
2023-03-02T22:37:39.015Z,11.07
2023-03-02T22:40:53.056Z,10.50
2023-03-02T22:44:17.125Z,9.77
2023-03-02T22:47:30.140Z,11.30
2023-03-02T22:50:54.056Z,11.00
2023-03-02T22:54:12.159Z,11.10
2023-03-02T22:57:42.163Z,11.27
2023-03-02T23:00:55.239Z,11.47
2023-03-02T23:04:22.219Z,11.40
2023-03-02T23:07:37.154Z,11.10
2023-03-02T23:11:03.220Z,10.63
2023-03-02T23:14:15.168Z,10.23
2023-03-02T23:17:39.250Z,10.25
2023-03-02T23:20:39.261Z,11.07
2023-03-02T23:23:51.299Z,9.97
2023-03-02T23:27:05.226Z,11.55
2023-03-02T23:30:30.240Z,12.07
2023-03-02T23:33:30.260Z,10.45
2023-03-02T23:36:54.305Z,11.50
2023-03-02T23:40:06.327Z,10.33
2023-03-02T23:43:35.238Z,10.97
2023-03-02T23:46:47.252Z,9.63
2023-03-02T23:49:59.312Z,9.90
2023-03-02T23:52:59.322Z,10.45
2023-03-02T23:56:11.293Z,9.77
2023-03-02T23:59:25.360Z,9.45
